sensor_id;sensor_type;location;lat;lon;timestamp;pressure;altitude;pressure_sealevel;temperature;humidity
28181;BME280;15464;50.988;10.318;2023-09-08T00:00:12;99393.47;;;15.25;94.63
28181;BME280;15464;50.988;10.318;2023-09-08T00:02:39;99394.31;;;15.25;96.47
28181;BME280;15464;50.988;10.318;2023-09-08T00:05:06;99396.91;;;15.17;93.34
28181;BME280;15464;50.988;10.318;2023-09-08T00:07:33;99396.66;;;15.11;92.97
28181;BME280;15464;50.988;10.318;2023-09-08T00:10:00;99389.22;;;15.05;92.60
28181;BME280;15464;50.988;10.318;2023-09-08T00:12:26;99396.69;;;15.01;92.64
28181;BME280;15464;50.988;10.318;2023-09-08T00:14:53;99395.31;;;14.97;92.77
28181;BME280;15464;50.988;10.318;2023-09-08T00:17:20;99390.56;;;14.91;93.18
28181;BME280;15464;50.988;10.318;2023-09-08T00:19:47;99388.16;;;14.88;93.14
28181;BME280;15464;50.988;10.318;2023-09-08T00:22:14;99389.75;;;14.81;93.37
28181;BME280;15464;50.988;10.318;2023-09-08T00:24:40;99385.81;;;14.75;93.67
28181;BME280;15464;50.988;10.318;2023-09-08T00:27:07;99386.00;;;14.74;93.27
28181;BME280;15464;50.988;10.318;2023-09-08T00:29:35;99385.28;;;14.72;94.12
28181;BME280;15464;50.988;10.318;2023-09-08T00:32:02;99391.09;;;14.67;95.04
28181;BME280;15464;50.988;10.318;2023-09-08T00:34:29;99384.19;;;14.65;94.50
28181;BME280;15464;50.988;10.318;2023-09-08T00:36:56;99390.81;;;14.61;94.22
28181;BME280;15464;50.988;10.318;2023-09-08T00:39:23;99390.38;;;14.56;93.78
28181;BME280;15464;50.988;10.318;2023-09-08T00:41:49;99390.69;;;14.52;94.65
28181;BME280;15464;50.988;10.318;2023-09-08T00:44:16;99391.81;;;14.50;92.84
28181;BME280;15464;50.988;10.318;2023-09-08T00:49:18;99390.88;;;14.41;93.84
28181;BME280;15464;50.988;10.318;2023-09-08T00:51:45;99388.19;;;14.41;94.13
28181;BME280;15464;50.988;10.318;2023-09-08T00:54:12;99397.47;;;14.37;95.35
28181;BME280;15464;50.988;10.318;2023-09-08T00:56:39;99378.34;;;14.32;94.26
28181;BME280;15464;50.988;10.318;2023-09-08T00:59:07;99387.63;;;14.28;95.72
28181;BME280;15464;50.988;10.318;2023-09-08T01:01:34;99385.09;;;14.27;96.11
28181;BME280;15464;50.988;10.318;2023-09-08T01:04:01;99387.22;;;14.23;96.18
28181;BME280;15464;50.988;10.318;2023-09-08T01:06:29;99394.78;;;14.18;95.06
28181;BME280;15464;50.988;10.318;2023-09-08T01:08:57;99393.28;;;14.16;94.66
28181;BME280;15464;50.988;10.318;2023-09-08T01:11:24;99393.53;;;14.12;95.69
28181;BME280;15464;50.988;10.318;2023-09-08T01:13:52;99387.66;;;14.09;95.99
28181;BME280;15464;50.988;10.318;2023-09-08T01:16:19;99401.97;;;14.08;96.04
28181;BME280;15464;50.988;10.318;2023-09-08T01:18:46;99401.56;;;14.03;95.88
28181;BME280;15464;50.988;10.318;2023-09-08T01:26:36;99395.94;;;13.96;96.01
28181;BME280;15464;50.988;10.318;2023-09-08T01:29:03;99400.88;;;13.91;95.43
28181;BME280;15464;50.988;10.318;2023-09-08T01:31:31;99398.34;;;13.90;96.58
28181;BME280;15464;50.988;10.318;2023-09-08T01:34:01;99392.72;;;13.83;95.85
28181;BME280;15464;50.988;10.318;2023-09-08T01:36:28;99387.69;;;13.80;97.04
28181;BME280;15464;50.988;10.318;2023-09-08T01:38:54;99393.28;;;13.77;96.71
28181;BME280;15464;50.988;10.318;2023-09-08T01:41:21;99395.41;;;13.73;97.80
28181;BME280;15464;50.988;10.318;2023-09-08T01:43:48;99386.28;;;13.66;96.49
28181;BME280;15464;50.988;10.318;2023-09-08T01:46:15;99387.38;;;13.64;97.71
28181;BME280;15464;50.988;10.318;2023-09-08T01:48:41;99380.66;;;13.60;97.54
28181;BME280;15464;50.988;10.318;2023-09-08T01:51:08;99388.66;;;13.60;97.83
28181;BME280;15464;50.988;10.318;2023-09-08T01:53:35;99385.28;;;13.58;97.29
28181;BME280;15464;50.988;10.318;2023-09-08T01:56:01;99386.25;;;13.57;97.77
28181;BME280;15464;50.988;10.318;2023-09-08T01:58:28;99384.72;;;13.54;96.83
28181;BME280;15464;50.988;10.318;2023-09-08T02:00:57;99382.06;;;13.54;96.33
28181;BME280;15464;50.988;10.318;2023-09-08T02:03:28;99384.28;;;13.49;98.05
28181;BME280;15464;50.988;10.318;2023-09-08T02:05:55;99382.88;;;13.45;97.35
28181;BME280;15464;50.988;10.318;2023-09-08T02:08:21;99385.13;;;13.40;98.88
28181;BME280;15464;50.988;10.318;2023-09-08T02:10:48;99384.41;;;13.38;97.85
28181;BME280;15464;50.988;10.318;2023-09-08T02:13:15;99388.22;;;13.36;96.48
28181;BME280;15464;50.988;10.318;2023-09-08T02:15:42;99386.66;;;13.33;98.35
28181;BME280;15464;50.988;10.318;2023-09-08T02:18:09;99387.91;;;13.29;97.61
28181;BME280;15464;50.988;10.318;2023-09-08T02:20:36;99385.63;;;13.24;98.00
28181;BME280;15464;50.988;10.318;2023-09-08T02:23:06;99383.13;;;13.23;98.98
28181;BME280;15464;50.988;10.318;2023-09-08T02:25:33;99389.56;;;13.20;98.17
28181;BME280;15464;50.988;10.318;2023-09-08T02:28:00;99394.03;;;13.20;97.69
28181;BME280;15464;50.988;10.318;2023-09-08T02:30:27;99384.91;;;13.13;97.98
28181;BME280;15464;50.988;10.318;2023-09-08T02:32:53;99390.50;;;13.10;98.73
28181;BME280;15464;50.988;10.318;2023-09-08T02:35:25;99396.06;;;13.07;98.32
28181;BME280;15464;50.988;10.318;2023-09-08T02:37:52;99391.72;;;13.06;98.91
28181;BME280;15464;50.988;10.318;2023-09-08T02:40:18;99386.69;;;13.03;97.69
28181;BME280;15464;50.988;10.318;2023-09-08T02:42:47;99381.63;;;13.00;97.43
28181;BME280;15464;50.988;10.318;2023-09-08T02:45:14;99387.22;;;12.97;99.22
28181;BME280;15464;50.988;10.318;2023-09-08T02:47:40;99386.50;;;12.94;98.67
28181;BME280;15464;50.988;10.318;2023-09-08T02:50:08;99388.63;;;12.91;99.16
28181;BME280;15464;50.988;10.318;2023-09-08T02:52:35;99387.19;;;12.87;99.74
28181;BME280;15464;50.988;10.318;2023-09-08T02:55:02;99388.19;;;12.86;100.00
28181;BME280;15464;50.988;10.318;2023-09-08T02:57:28;99386.63;;;12.83;100.00
28181;BME280;15464;50.988;10.318;2023-09-08T02:59:55;99388.72;;;12.80;100.00
28181;BME280;15464;50.988;10.318;2023-09-08T03:02:26;99383.53;;;12.78;100.00
28181;BME280;15464;50.988;10.318;2023-09-08T03:04:53;99382.69;;;12.78;100.00
28181;BME280;15464;50.988;10.318;2023-09-08T03:07:20;99385.59;;;12.75;100.00
28181;BME280;15464;50.988;10.318;2023-09-08T03:09:47;99380.44;;;12.73;100.00
28181;BME280;15464;50.988;10.318;2023-09-08T03:12:14;99381.66;;;12.69;100.00
28181;BME280;15464;50.988;10.318;2023-09-08T03:14:41;99378.44;;;12.66;100.00
28181;BME280;15464;50.988;10.318;2023-09-08T03:17:07;99376.16;;;12.61;100.00
28181;BME280;15464;50.988;10.318;2023-09-08T03:19:34;99378.13;;;12.59;100.00
28181;BME280;15464;50.988;10.318;2023-09-08T03:22:02;99378.34;;;12.56;100.00
28181;BME280;15464;50.988;10.318;2023-09-08T03:24:28;99383.84;;;12.55;100.00
28181;BME280;15464;50.988;10.318;2023-09-08T03:26:55;99382.56;;;12.49;100.00
28181;BME280;15464;50.988;10.318;2023-09-08T03:29:23;99384.50;;;12.47;100.00
28181;BME280;15464;50.988;10.318;2023-09-08T03:31:49;99380.28;;;12.44;100.00
28181;BME280;15464;50.988;10.318;2023-09-08T03:34:16;99375.47;;;12.38;100.00
28181;BME280;15464;50.988;10.318;2023-09-08T03:36:48;99375.59;;;12.37;100.00
28181;BME280;15464;50.988;10.318;2023-09-08T03:39:15;99367.91;;;12.34;100.00
28181;BME280;15464;50.988;10.318;2023-09-08T03:41:42;99364.50;;;12.32;100.00
28181;BME280;15464;50.988;10.318;2023-09-08T03:44:08;99373.75;;;12.28;100.00
28181;BME280;15464;50.988;10.318;2023-09-08T03:46:36;99365.88;;;12.26;100.00
28181;BME280;15464;50.988;10.318;2023-09-08T03:49:03;99380.16;;;12.25;100.00
28181;BME280;15464;50.988;10.318;2023-09-08T03:51:30;99374.28;;;12.22;100.00
28181;BME280;15464;50.988;10.318;2023-09-08T03:53:56;99381.53;;;12.20;100.00
28181;BME280;15464;50.988;10.318;2023-09-08T03:56:23;99368.50;;;12.17;100.00
28181;BME280;15464;50.988;10.318;2023-09-08T03:58:50;99370.31;;;12.16;100.00
28181;BME280;15464;50.988;10.318;2023-09-08T04:01:17;99366.22;;;12.12;100.00
28181;BME280;15464;50.988;10.318;2023-09-08T04:03:43;99370.00;;;12.09;100.00
28181;BME280;15464;50.988;10.318;2023-09-08T04:06:10;99370.25;;;12.06;100.00
28181;BME280;15464;50.988;10.318;2023-09-08T04:08:37;99363.38;;;12.04;100.00
28181;BME280;15464;50.988;10.318;2023-09-08T04:11:04;99366.41;;;11.99;100.00
28181;BME280;15464;50.988;10.318;2023-09-08T04:13:31;99366.56;;;11.98;100.00
28181;BME280;15464;50.988;10.318;2023-09-08T04:15:58;99365.97;;;11.94;100.00
28181;BME280;15464;50.988;10.318;2023-09-08T04:18:25;99365.97;;;11.94;100.00
28181;BME280;15464;50.988;10.318;2023-09-08T04:20:52;99374.09;;;11.93;100.00
28181;BME280;15464;50.988;10.318;2023-09-08T04:23:18;99366.47;;;11.88;100.00
28181;BME280;15464;50.988;10.318;2023-09-08T04:25:45;99378.81;;;11.89;100.00
28181;BME280;15464;50.988;10.318;2023-09-08T04:28:12;99374.97;;;11.82;100.00
28181;BME280;15464;50.988;10.318;2023-09-08T04:30:39;99377.63;;;11.82;100.00
28181;BME280;15464;50.988;10.318;2023-09-08T04:33:06;99382.94;;;11.82;100.00
28181;BME280;15464;50.988;10.318;2023-09-08T04:35:33;99382.25;;;11.80;100.00
28181;BME280;15464;50.988;10.318;2023-09-08T04:37:59;99374.38;;;11.79;100.00
28181;BME280;15464;50.988;10.318;2023-09-08T04:40:29;99378.97;;;11.77;100.00
28181;BME280;15464;50.988;10.318;2023-09-08T04:42:56;99381.91;;;11.74;100.00
28181;BME280;15464;50.988;10.318;2023-09-08T04:45:23;99378.38;;;11.73;100.00
28181;BME280;15464;50.988;10.318;2023-09-08T04:47:50;99385.63;;;11.71;100.00
28181;BME280;15464;50.988;10.318;2023-09-08T04:50:17;99373.56;;;11.67;100.00
28181;BME280;15464;50.988;10.318;2023-09-08T04:52:44;99374.41;;;11.67;100.00
28181;BME280;15464;50.988;10.318;2023-09-08T04:55:11;99380.81;;;11.65;100.00
28181;BME280;15464;50.988;10.318;2023-09-08T04:57:38;99375.09;;;11.69;100.00
28181;BME280;15464;50.988;10.318;2023-09-08T05:00:06;99372.44;;;11.69;100.00
28181;BME280;15464;50.988;10.318;2023-09-08T05:02:33;99374.41;;;11.67;100.00
28181;BME280;15464;50.988;10.318;2023-09-08T05:05:00;99376.34;;;11.65;100.00
28181;BME280;15464;50.988;10.318;2023-09-08T05:07:26;99380.09;;;11.63;100.00
28181;BME280;15464;50.988;10.318;2023-09-08T05:09:53;99374.94;;;11.61;100.00
28181;BME280;15464;50.988;10.318;2023-09-08T05:12:23;99381.06;;;11.62;100.00
28181;BME280;15464;50.988;10.318;2023-09-08T05:14:50;99387.38;;;11.61;100.00
28181;BME280;15464;50.988;10.318;2023-09-08T05:17:23;99384.56;;;11.62;100.00
28181;BME280;15464;50.988;10.318;2023-09-08T05:19:50;99383.72;;;11.62;100.00
28181;BME280;15464;50.988;10.318;2023-09-08T05:22:17;99389.88;;;11.62;100.00
28181;BME280;15464;50.988;10.318;2023-09-08T05:24:44;99388.06;;;11.63;100.00
28181;BME280;15464;50.988;10.318;2023-09-08T05:27:11;99381.78;;;11.64;100.00
28181;BME280;15464;50.988;10.318;2023-09-08T05:29:38;99388.66;;;11.66;100.00
28181;BME280;15464;50.988;10.318;2023-09-08T05:32:05;99385.88;;;11.68;100.00
28181;BME280;15464;50.988;10.318;2023-09-08T05:34:31;99384.03;;;11.68;100.00
28181;BME280;15464;50.988;10.318;2023-09-08T05:36:58;99386.47;;;11.71;100.00
28181;BME280;15464;50.988;10.318;2023-09-08T05:39:25;99388.06;;;11.74;100.00
28181;BME280;15464;50.988;10.318;2023-09-08T05:41:51;99392.16;;;11.78;100.00
28181;BME280;15464;50.988;10.318;2023-09-08T05:44:18;99396.22;;;11.82;100.00
28181;BME280;15464;50.988;10.318;2023-09-08T05:46:45;99390.41;;;11.88;100.00
28181;BME280;15464;50.988;10.318;2023-09-08T05:49:12;99399.81;;;11.92;100.00
28181;BME280;15464;50.988;10.318;2023-09-08T05:51:40;99403.19;;;11.94;100.00
28181;BME280;15464;50.988;10.318;2023-09-08T05:54:07;99404.16;;;11.93;100.00
28181;BME280;15464;50.988;10.318;2023-09-08T05:56:34;99409.22;;;11.96;100.00
28181;BME280;15464;50.988;10.318;2023-09-08T05:59:01;99401.25;;;11.96;100.00
28181;BME280;15464;50.988;10.318;2023-09-08T06:01:28;99400.97;;;11.99;100.00
28181;BME280;15464;50.988;10.318;2023-09-08T06:03:55;99406.63;;;12.06;100.00
28181;BME280;15464;50.988;10.318;2023-09-08T06:06:23;99401.63;;;12.12;100.00
28181;BME280;15464;50.988;10.318;2023-09-08T06:08:49;99398.28;;;12.10;100.00
28181;BME280;15464;50.988;10.318;2023-09-08T06:11:16;99399.28;;;12.19;100.00
28181;BME280;15464;50.988;10.318;2023-09-08T06:13:43;99397.94;;;12.25;100.00
28181;BME280;15464;50.988;10.318;2023-09-08T06:16:10;99395.34;;;12.34;100.00
28181;BME280;15464;50.988;10.318;2023-09-08T06:18:37;99402.69;;;12.42;100.00
28181;BME280;15464;50.988;10.318;2023-09-08T06:21:07;99399.72;;;12.45;100.00
28181;BME280;15464;50.988;10.318;2023-09-08T06:23:34;99391.94;;;12.53;100.00
28181;BME280;15464;50.988;10.318;2023-09-08T06:26:03;99396.75;;;12.59;100.00
28181;BME280;15464;50.988;10.318;2023-09-08T06:28:30;99383.75;;;12.66;100.00
28181;BME280;15464;50.988;10.318;2023-09-08T06:30:57;99385.75;;;12.73;100.00
28181;BME280;15464;50.988;10.318;2023-09-08T06:33:23;99381.41;;;12.82;100.00
28181;BME280;15464;50.988;10.318;2023-09-08T06:35:50;99389.47;;;12.91;100.00
28181;BME280;15464;50.988;10.318;2023-09-08T06:38:17;99385.28;;;12.99;100.00
28181;BME280;15464;50.988;10.318;2023-09-08T06:40:44;99392.19;;;13.11;100.00
28181;BME280;15464;50.988;10.318;2023-09-08T06:43:11;99389.84;;;13.17;100.00
28181;BME280;15464;50.988;10.318;2023-09-08T06:45:38;99385.38;;;13.27;100.00
28181;BME280;15464;50.988;10.318;2023-09-08T06:48:06;99391.72;;;13.36;100.00
28181;BME280;15464;50.988;10.318;2023-09-08T06:50:34;99387.22;;;13.46;100.00
28181;BME280;15464;50.988;10.318;2023-09-08T06:53:01;99388.25;;;13.55;100.00
28181;BME280;15464;50.988;10.318;2023-09-08T06:55:28;99383.63;;;13.66;100.00
28181;BME280;15464;50.988;10.318;2023-09-08T06:57:56;99383.72;;;13.74;100.00
28181;BME280;15464;50.988;10.318;2023-09-08T07:00:23;99387.66;;;13.90;100.00
28181;BME280;15464;50.988;10.318;2023-09-08T07:02:50;99382.31;;;14.09;100.00
28181;BME280;15464;50.988;10.318;2023-09-08T07:05:17;99386.50;;;14.40;100.00
28181;BME280;15464;50.988;10.318;2023-09-08T07:07:44;99377.97;;;14.74;100.00
28181;BME280;15464;50.988;10.318;2023-09-08T07:10:12;99379.06;;;15.08;100.00
28181;BME280;15464;50.988;10.318;2023-09-08T07:12:39;99374.09;;;15.41;100.00
28181;BME280;15464;50.988;10.318;2023-09-08T07:15:06;99365.44;;;15.74;100.00
28181;BME280;15464;50.988;10.318;2023-09-08T07:17:35;99372.59;;;16.09;100.00
28181;BME280;15464;50.988;10.318;2023-09-08T07:20:02;99373.88;;;16.48;100.00
28181;BME280;15464;50.988;10.318;2023-09-08T07:22:29;99366.53;;;16.76;100.00
28181;BME280;15464;50.988;10.318;2023-09-08T07:24:56;99371.19;;;17.08;98.87
28181;BME280;15464;50.988;10.318;2023-09-08T07:27:22;99363.09;;;17.42;96.60
28181;BME280;15464;50.988;10.318;2023-09-08T07:29:49;99365.50;;;17.69;94.83
28181;BME280;15464;50.988;10.318;2023-09-08T07:32:17;99368.53;;;18.07;92.12
28181;BME280;15464;50.988;10.318;2023-09-08T07:34:44;99365.84;;;18.31;88.55
28181;BME280;15464;50.988;10.318;2023-09-08T07:37:11;99353.91;;;18.66;87.98
28181;BME280;15464;50.988;10.318;2023-09-08T07:39:38;99362.41;;;18.86;83.45
28181;BME280;15464;50.988;10.318;2023-09-08T07:42:05;99354.16;;;19.18;82.41
28181;BME280;15464;50.988;10.318;2023-09-08T07:44:32;99352.00;;;19.53;80.73
28181;BME280;15464;50.988;10.318;2023-09-08T07:46:59;99346.41;;;19.85;79.95
28181;BME280;15464;50.988;10.318;2023-09-08T07:49:25;99354.75;;;19.90;77.57
28181;BME280;15464;50.988;10.318;2023-09-08T07:51:52;99351.97;;;20.21;78.34
28181;BME280;15464;50.988;10.318;2023-09-08T07:54:19;99349.69;;;20.33;73.98
28181;BME280;15464;50.988;10.318;2023-09-08T07:56:47;99346.84;;;20.64;74.05
28181;BME280;15464;50.988;10.318;2023-09-08T07:59:14;99338.47;;;20.88;73.80
28181;BME280;15464;50.988;10.318;2023-09-08T08:01:41;99339.94;;;21.05;71.96
28181;BME280;15464;50.988;10.318;2023-09-08T08:04:07;99347.09;;;21.13;72.68
28181;BME280;15464;50.988;10.318;2023-09-08T08:06:35;99336.06;;;21.22;71.08
28181;BME280;15464;50.988;10.318;2023-09-08T08:09:02;99332.44;;;21.15;72.18
28181;BME280;15464;50.988;10.318;2023-09-08T08:11:29;99328.97;;;21.21;71.00
28181;BME280;15464;50.988;10.318;2023-09-08T08:13:56;99333.91;;;21.18;67.67
28181;BME280;15464;50.988;10.318;2023-09-08T08:16:23;99337.97;;;21.14;68.56
28181;BME280;15464;50.988;10.318;2023-09-08T08:18:51;99333.53;;;21.21;70.57
28181;BME280;15464;50.988;10.318;2023-09-08T08:21:18;99339.66;;;21.15;71.47
28181;BME280;15464;50.988;10.318;2023-09-08T08:23:45;99334.00;;;21.10;71.58
28181;BME280;15464;50.988;10.318;2023-09-08T08:26:12;99322.84;;;20.98;70.02
28181;BME280;15464;50.988;10.318;2023-09-08T08:28:39;99331.22;;;21.03;70.34
28181;BME280;15464;50.988;10.318;2023-09-08T08:31:05;99327.84;;;21.01;70.29
28181;BME280;15464;50.988;10.318;2023-09-08T08:33:32;99326.50;;;20.90;69.12
28181;BME280;15464;50.988;10.318;2023-09-08T08:35:59;99318.88;;;20.79;70.52
28181;BME280;15464;50.988;10.318;2023-09-08T08:38:27;99320.53;;;20.80;70.45
28181;BME280;15464;50.988;10.318;2023-09-08T08:40:54;99315.53;;;20.77;70.81
28181;BME280;15464;50.988;10.318;2023-09-08T08:43:21;99322.94;;;20.75;68.21
28181;BME280;15464;50.988;10.318;2023-09-08T08:45:50;99316.63;;;20.68;69.39
28181;BME280;15464;50.988;10.318;2023-09-08T08:48:18;99309.38;;;20.69;71.04
28181;BME280;15464;50.988;10.318;2023-09-08T08:50:47;99317.69;;;20.67;71.27
28181;BME280;15464;50.988;10.318;2023-09-08T08:53:15;99307.91;;;20.66;70.47
28181;BME280;15464;50.988;10.318;2023-09-08T08:55:44;99307.16;;;20.72;70.31
28181;BME280;15464;50.988;10.318;2023-09-08T08:58:12;99313.50;;;20.79;71.37
28181;BME280;15464;50.988;10.318;2023-09-08T09:00:41;99304.25;;;20.88;69.48
28181;BME280;15464;50.988;10.318;2023-09-08T09:03:09;99301.53;;;21.03;68.79
28181;BME280;15464;50.988;10.318;2023-09-08T09:05:41;99306.47;;;21.00;70.18
28181;BME280;15464;50.988;10.318;2023-09-08T09:08:14;99310.22;;;20.99;69.99
28181;BME280;15464;50.988;10.318;2023-09-08T09:10:42;99306.69;;;20.98;70.34
28181;BME280;15464;50.988;10.318;2023-09-08T09:13:09;99313.94;;;20.98;70.93
28181;BME280;15464;50.988;10.318;2023-09-08T09:15:36;99297.63;;;21.06;69.33
28181;BME280;15464;50.988;10.318;2023-09-08T09:18:07;99303.19;;;21.19;68.23
28181;BME280;15464;50.988;10.318;2023-09-08T09:20:35;99299.75;;;21.25;67.38
28181;BME280;15464;50.988;10.318;2023-09-08T09:23:02;99304.13;;;21.26;67.64
28181;BME280;15464;50.988;10.318;2023-09-08T09:25:31;99302.34;;;21.33;67.25
28181;BME280;15464;50.988;10.318;2023-09-08T09:28:00;99301.19;;;21.42;66.22
28181;BME280;15464;50.988;10.318;2023-09-08T09:30:28;99304.53;;;21.44;67.10
28181;BME280;15464;50.988;10.318;2023-09-08T09:33:02;99299.44;;;21.56;68.75
28181;BME280;15464;50.988;10.318;2023-09-08T09:35:45;99303.25;;;21.61;69.94
28181;BME280;15464;50.988;10.318;2023-09-08T09:38:13;99295.78;;;21.63;68.52
28181;BME280;15464;50.988;10.318;2023-09-08T09:40:40;99297.09;;;21.67;68.92
28181;BME280;15464;50.988;10.318;2023-09-08T09:43:07;99291.28;;;21.70;67.40
28181;BME280;15464;50.988;10.318;2023-09-08T09:45:36;99286.78;;;21.78;66.19
28181;BME280;15464;50.988;10.318;2023-09-08T09:48:04;99292.06;;;21.86;66.97
28181;BME280;15464;50.988;10.318;2023-09-08T09:50:33;99288.97;;;21.89;63.50
28181;BME280;15464;50.988;10.318;2023-09-08T09:53:01;99284.41;;;21.89;62.22
28181;BME280;15464;50.988;10.318;2023-09-08T09:55:29;99290.22;;;21.93;60.36
28181;BME280;15464;50.988;10.318;2023-09-08T09:57:57;99284.06;;;21.99;60.73
28181;BME280;15464;50.988;10.318;2023-09-08T10:00:30;99284.59;;;22.09;60.23
28181;BME280;15464;50.988;10.318;2023-09-08T10:03:00;99286.75;;;22.20;58.83
28181;BME280;15464;50.988;10.318;2023-09-08T10:05:27;99288.41;;;22.21;58.83
28181;BME280;15464;50.988;10.318;2023-09-08T10:07:54;99285.31;;;22.24;58.87
28181;BME280;15464;50.988;10.318;2023-09-08T10:10:21;99284.53;;;22.30;60.16
28181;BME280;15464;50.988;10.318;2023-09-08T10:13:02;99277.09;;;22.39;60.09
28181;BME280;15464;50.988;10.318;2023-09-08T10:15:30;99278.38;;;22.43;59.58
28181;BME280;15464;50.988;10.318;2023-09-08T10:17:58;99279.06;;;22.51;59.63
28181;BME280;15464;50.988;10.318;2023-09-08T10:20:27;99271.16;;;22.57;58.38
28181;BME280;15464;50.988;10.318;2023-09-08T10:23:12;99269.19;;;22.72;61.14
28181;BME280;15464;50.988;10.318;2023-09-08T10:25:43;99274.69;;;22.85;58.94
28181;BME280;15464;50.988;10.318;2023-09-08T10:28:12;99261.59;;;22.95;58.41
28181;BME280;15464;50.988;10.318;2023-09-08T10:30:40;99260.16;;;22.99;58.81
28181;BME280;15464;50.988;10.318;2023-09-08T10:33:08;99261.25;;;23.18;58.19
28181;BME280;15464;50.988;10.318;2023-09-08T10:35:35;99259.84;;;23.28;55.00
28181;BME280;15464;50.988;10.318;2023-09-08T10:38:25;99250.25;;;23.32;56.70
28181;BME280;15464;50.988;10.318;2023-09-08T10:40:53;99255.50;;;23.41;55.69
28181;BME280;15464;50.988;10.318;2023-09-08T10:43:20;99260.13;;;23.53;56.33
28181;BME280;15464;50.988;10.318;2023-09-08T10:45:47;99246.16;;;23.63;55.80
28181;BME280;15464;50.988;10.318;2023-09-08T10:48:14;99247.44;;;23.74;56.35
28181;BME280;15464;50.988;10.318;2023-09-08T10:50:43;99254.72;;;23.86;55.51
28181;BME280;15464;50.988;10.318;2023-09-08T10:53:13;99250.13;;;24.06;54.04
28181;BME280;15464;50.988;10.318;2023-09-08T10:55:50;99251.59;;;24.16;53.62
28181;BME280;15464;50.988;10.318;2023-09-08T10:58:39;99239.09;;;24.28;54.75
28181;BME280;15464;50.988;10.318;2023-09-08T11:01:16;99239.91;;;24.35;53.75
28181;BME280;15464;50.988;10.318;2023-09-08T11:03:47;99240.28;;;24.45;52.58
28181;BME280;15464;50.988;10.318;2023-09-08T11:06:17;99238.59;;;24.50;51.78
28181;BME280;15464;50.988;10.318;2023-09-08T11:08:46;99233.16;;;24.57;53.44
28181;BME280;15464;50.988;10.318;2023-09-08T11:11:14;99228.75;;;24.63;53.93
28181;BME280;15464;50.988;10.318;2023-09-08T11:13:41;99236.44;;;24.72;53.62
28181;BME280;15464;50.988;10.318;2023-09-08T11:16:08;99229.50;;;24.89;51.01
28181;BME280;15464;50.988;10.318;2023-09-08T11:18:35;99226.31;;;24.99;48.88
28181;BME280;15464;50.988;10.318;2023-09-08T11:21:07;99225.41;;;25.12;48.23
28181;BME280;15464;50.988;10.318;2023-09-08T11:23:34;99217.19;;;25.25;48.70
28181;BME280;15464;50.988;10.318;2023-09-08T11:26:01;99222.13;;;25.41;50.26
28181;BME280;15464;50.988;10.318;2023-09-08T11:28:28;99213.84;;;25.61;50.12
28181;BME280;15464;50.988;10.318;2023-09-08T11:30:55;99220.19;;;25.80;50.08
28181;BME280;15464;50.988;10.318;2023-09-08T11:33:23;99222.06;;;26.04;47.58
28181;BME280;15464;50.988;10.318;2023-09-08T11:35:54;99212.09;;;26.16;47.91
28181;BME280;15464;50.988;10.318;2023-09-08T11:38:30;99219.06;;;26.30;47.66
28181;BME280;15464;50.988;10.318;2023-09-08T11:40:59;99206.38;;;26.42;46.83
28181;BME280;15464;50.988;10.318;2023-09-08T11:43:26;99222.88;;;26.66;49.40
28181;BME280;15464;50.988;10.318;2023-09-08T11:45:54;99206.88;;;26.87;48.22
28181;BME280;15464;50.988;10.318;2023-09-08T11:48:24;99205.13;;;27.11;48.97
28181;BME280;15464;50.988;10.318;2023-09-08T11:50:54;99207.31;;;27.33;44.77
28181;BME280;15464;50.988;10.318;2023-09-08T11:53:22;99213.47;;;27.69;46.09
28181;BME280;15464;50.988;10.318;2023-09-08T11:55:50;99209.25;;;28.08;48.37
28181;BME280;15464;50.988;10.318;2023-09-08T11:58:18;99201.66;;;28.45;47.51
28181;BME280;15464;50.988;10.318;2023-09-08T12:00:46;99190.91;;;28.79;45.25
28181;BME280;15464;50.988;10.318;2023-09-08T12:03:16;99189.97;;;29.02;44.11
28181;BME280;15464;50.988;10.318;2023-09-08T12:05:51;99194.72;;;29.35;44.71
28181;BME280;15464;50.988;10.318;2023-09-08T12:08:19;99194.59;;;29.58;45.92
28181;BME280;15464;50.988;10.318;2023-09-08T12:10:46;99191.44;;;29.83;44.28
28181;BME280;15464;50.988;10.318;2023-09-08T12:13:13;99193.94;;;30.01;42.07
28181;BME280;15464;50.988;10.318;2023-09-08T12:15:46;99182.56;;;30.48;40.60
28181;BME280;15464;50.988;10.318;2023-09-08T12:18:14;99186.81;;;30.82;40.37
28181;BME280;15464;50.988;10.318;2023-09-08T12:20:44;99182.66;;;31.01;40.72
28181;BME280;15464;50.988;10.318;2023-09-08T12:23:21;99179.66;;;31.03;39.51
28181;BME280;15464;50.988;10.318;2023-09-08T12:25:50;99182.09;;;31.21;39.57
28181;BME280;15464;50.988;10.318;2023-09-08T12:28:19;99178.97;;;31.39;38.69
28181;BME280;15464;50.988;10.318;2023-09-08T12:30:46;99181.94;;;31.59;38.95
28181;BME280;15464;50.988;10.318;2023-09-08T12:33:14;99182.25;;;31.68;36.28
28181;BME280;15464;50.988;10.318;2023-09-08T12:35:45;99183.13;;;31.42;38.33
28181;BME280;15464;50.988;10.318;2023-09-08T12:38:13;99178.34;;;31.59;37.96
28181;BME280;15464;50.988;10.318;2023-09-08T12:40:40;99179.03;;;31.49;37.04
28181;BME280;15464;50.988;10.318;2023-09-08T12:43:06;99172.88;;;31.59;36.41
28181;BME280;15464;50.988;10.318;2023-09-08T12:45:52;99171.81;;;31.65;36.88
28181;BME280;15464;50.988;10.318;2023-09-08T12:48:18;99168.88;;;31.45;36.86
28181;BME280;15464;50.988;10.318;2023-09-08T12:50:46;99170.06;;;31.54;37.21
28181;BME280;15464;50.988;10.318;2023-09-08T12:53:15;99164.44;;;31.39;35.90
28181;BME280;15464;50.988;10.318;2023-09-08T12:55:43;99163.78;;;31.27;36.61